Clapham, New Mexico
Current Conditions -  °F | °C
As of 8:55 PM on Thursday 20 Nov 2014 (Local Time) from KCAO Reporting Station
Clear Clear  
Wind Chill: 34°   Ceiling: Unl
Heat Index: 34°   Visibility: 10mi
Dew Point: 24°   Wind: 0mph
Humidity: 67%   Direction: NA
Pressure: 30.03"   Gusts: NA
Location:  36.2639°N, 103.376°W
Report Text: KCAO 210355Z AUTO 00000KT 10SM CLR 01/M04 A3003 RMK AO2 SLP160 T00111044
Loading
Personal Weather Stations






























Interactive Weather Map New forecast layout! Learn more

10-Day Weather Forecast

Advertisements
Track Severe Weather on mobile